Time;durP1;ratioP1;P1;durP2;ratioP2;P2;SDS_P1;SDS_P2;PMS_P1;PMS_P2;Temp;Humidity;BMP_temperature;BMP_pressure;BME280_temperature;BME280_humidity;BME280_pressure;Samples;Min_cycle;Max_cycle;Signal;HPM_P1;HPM_P2
2022/05/03 00:02:06;;;;;;;;;11.50;7.50;;;;;11.23;57.84;100045.03;5078616;28;9499;-63
2022/05/03 00:04:34;;;;;;;;;12.75;12.75;;;;;11.24;58.25;100048.56;5075435;28;8845;-63
2022/05/03 00:07:02;;;;;;;;;13.50;13.50;;;;;11.23;57.75;100044.22;5075817;28;8826;-62
2022/05/03 00:09:30;;;;;;;;;15.50;14.75;;;;;11.19;58.74;100048.94;5077495;28;8825;-62
2022/05/03 00:11:57;;;;;;;;;14.75;14.00;;;;;11.14;58.23;100048.44;5077386;28;8868;-63
2022/05/03 00:14:25;;;;;;;;;15.00;14.50;;;;;11.09;58.37;100055.13;5077603;28;8859;-63
2022/05/03 00:16:53;;;;;;;;;12.75;12.00;;;;;11.04;58.66;100055.50;5077883;28;8838;-63
2022/05/03 00:19:21;;;;;;;;;14.25;14.25;;;;;10.98;58.81;100053.31;5077562;28;8951;-63
2022/05/03 00:21:48;;;;;;;;;9.00;8.50;;;;;10.94;58.50;100048.34;5077533;28;8858;-63
2022/05/03 00:24:16;;;;;;;;;15.00;14.50;;;;;10.89;58.76;100047.84;5077222;28;8834;-63
2022/05/03 00:26:44;;;;;;;;;13.50;12.75;;;;;10.84;58.73;100050.06;5077596;28;9653;-63
2022/05/03 00:29:12;;;;;;;;;12.75;11.50;;;;;10.78;58.84;100056.69;5077640;28;8854;-63
2022/05/03 00:31:39;;;;;;;;;13.00;13.00;;;;;10.73;59.02;100048.22;5077084;28;8968;-64
2022/05/03 00:34:07;;;;;;;;;12.75;12.75;;;;;10.69;59.02;100046.75;5074671;28;8822;-63
2022/05/03 00:36:35;;;;;;;;;5.50;5.50;;;;;10.64;59.12;100038.31;5074355;28;8870;-62
2022/05/03 00:39:03;;;;;;;;;10.00;10.00;;;;;10.61;58.64;100040.38;5074436;28;8841;-63
2022/05/03 00:41:31;;;;;;;;;14.75;14.00;;;;;10.55;59.09;100039.00;5074772;28;9038;-64
2022/05/03 00:43:59;;;;;;;;;9.25;6.50;;;;;10.52;59.23;100033.94;5077182;28;8838;-64
2022/05/03 00:46:27;;;;;;;;;16.50;14.50;;;;;10.47;59.42;100033.44;5077246;28;8834;-63
2022/05/03 00:48:55;;;;;;;;;14.75;14.75;;;;;10.44;59.34;100030.16;5076780;28;8848;-63
2022/05/03 00:51:22;;;;;;;;;15.25;13.25;;;;;10.40;59.39;100029.53;5077293;28;8864;-63
2022/05/03 00:53:50;;;;;;;;;10.75;9.75;;;;;10.37;59.38;100027.13;5077319;28;8830;-64
2022/05/03 00:56:18;;;;;;;;;15.00;13.40;;;;;10.34;59.58;100023.84;5077320;28;9539;-64
2022/05/03 00:58:46;;;;;;;;;14.75;13.25;;;;;10.30;59.34;100038.34;5076580;28;9488;-62
2022/05/03 01:01:13;;;;;;;;;14.40;13.40;;;;;10.26;59.69;100043.06;5076671;28;9350;-63
2022/05/03 01:03:41;;;;;;;;;15.00;13.00;;;;;10.22;59.52;100038.97;5076720;28;8893;-64
2022/05/03 01:06:11;;;;;;;;;12.80;12.60;;;;;10.18;59.61;100037.47;5076483;28;8860;-63
2022/05/03 01:08:39;;;;;;;;;9.00;7.00;;;;;10.14;59.83;100037.84;5075887;28;8821;-63
2022/05/03 01:11:06;;;;;;;;;11.20;10.40;;;;;10.09;60.01;100040.03;5073661;28;8841;-63
2022/05/03 01:13:34;;;;;;;;;9.40;7.40;;;;;10.03;59.95;100043.97;5076005;28;8821;-63
2022/05/03 01:16:02;;;;;;;;;12.00;11.00;;;;;9.99;60.27;100042.50;5075977;28;8829;-63
2022/05/03 01:18:30;;;;;;;;;4.80;4.40;;;;;9.95;60.68;100042.84;5076335;28;8833;-63
2022/05/03 01:20:57;;;;;;;;;15.20;12.60;;;;;9.91;60.18;100036.03;5076247;28;8877;-63
2022/05/03 01:23:25;;;;;;;;;11.20;10.00;;;;;9.89;60.71;100036.19;5076209;28;8841;-63
2022/05/03 01:25:53;;;;;;;;;9.00;9.00;;;;;9.85;60.84;100040.00;5076188;28;9025;-63
2022/05/03 01:28:21;;;;;;;;;15.20;13.20;;;;;9.83;60.37;100038.44;5075996;28;8830;-64
2022/05/03 01:30:49;;;;;;;;;9.25;7.00;;;;;9.81;60.16;100033.22;5075694;28;8928;-63
2022/05/03 01:33:16;;;;;;;;;6.60;5.60;;;;;9.78;60.28;100033.47;5076282;28;8810;-64
2022/05/03 01:35:44;;;;;;;;;12.80;12.00;;;;;9.73;60.28;100024.97;5075842;28;8830;-63
2022/05/03 01:38:12;;;;;;;;;12.80;12.60;;;;;9.67;60.43;100021.94;5076023;28;8891;-63
2022/05/03 01:40:40;;;;;;;;;9.60;9.60;;;;;9.59;60.74;100035.81;5076586;28;8833;-63
2022/05/03 01:43:07;;;;;;;;;11.60;9.80;;;;;9.51;60.70;100024.91;5082036;28;8808;-63
2022/05/03 01:45:35;;;;;;;;;10.40;10.40;;;;;9.46;60.59;100026.16;5096599;28;8858;-63
2022/05/03 01:48:03;;;;;;;;;11.60;11.60;;;;;9.41;61.20;100023.03;5096688;28;8867;-63
2022/05/03 01:50:29;;;;;;;;;15.00;15.00;;;;;9.35;61.04;100026.94;5095844;28;8840;-63
2022/05/03 01:52:57;;;;;;;;;9.60;9.60;;;;;9.27;61.06;100024.00;5094791;28;8832;-64
2022/05/03 01:55:25;;;;;;;;;14.60;13.80;;;;;9.20;61.44;100027.25;5094809;28;8843;-63
2022/05/03 01:57:53;;;;;;;;;8.80;8.60;;;;;9.14;61.37;100028.53;5094727;28;8882;-63
2022/05/03 02:00:20;;;;;;;;;17.60;15.80;;;;;9.10;61.75;100031.50;5094790;28;8970;-63
2022/05/03 02:02:48;;;;;;;;;7.80;7.40;;;;;9.05;61.78;100029.19;5094586;28;8861;-63
2022/05/03 02:05:16;;;;;;;;;12.20;10.80;;;;;9.01;61.54;100027.72;5094897;28;8844;-63
2022/05/03 02:07:44;;;;;;;;;11.60;10.00;;;;;8.98;61.59;100016.47;5094623;28;8835;-65
2022/05/03 02:10:12;;;;;;;;;14.20;13.40;;;;;8.95;61.18;100019.34;5094451;28;8860;-63
2022/05/03 02:12:39;;;;;;;;;6.60;5.20;;;;;8.93;62.31;100022.13;5094338;28;8861;-63
2022/05/03 02:15:06;;;;;;;;;10.80;10.40;;;;;8.89;61.83;100025.94;5092318;28;8989;-63
2022/05/03 02:17:35;;;;;;;;;10.00;9.00;;;;;8.87;61.64;100019.03;5095244;28;8830;-63
2022/05/03 02:20:03;;;;;;;;;12.40;10.40;;;;;8.83;61.76;100020.22;5096175;28;8874;-63
2022/05/03 02:22:31;;;;;;;;;7.00;6.00;;;;;8.81;61.75;100017.66;5096001;28;8839;-63
2022/05/03 02:24:58;;;;;;;;;14.20;12.80;;;;;8.79;61.66;100024.91;5095478;28;8830;-64
2022/05/03 02:27:26;;;;;;;;;10.00;10.00;;;;;8.79;61.72;100018.72;5095257;28;8823;-65
2022/05/03 02:29:54;;;;;;;;;14.00;13.40;;;;;8.78;61.68;100009.94;5095964;28;8855;-63
2022/05/03 02:32:22;;;;;;;;;14.60;14.60;;;;;8.77;62.07;100013.56;5095787;28;8835;-64
2022/05/03 02:34:49;;;;;;;;;11.20;9.80;;;;;8.77;61.73;100008.25;5095252;28;9505;-63
2022/05/03 02:37:18;;;;;;;;;12.80;12.20;;;;;8.78;61.96;100003.75;5095671;28;8845;-63
2022/05/03 02:39:46;;;;;;;;;9.60;9.40;;;;;8.80;61.75;100005.34;5095909;28;9542;-63
2022/05/03 02:42:14;;;;;;;;;13.80;12.60;;;;;8.81;61.59;100001.75;5095460;28;8835;-63
2022/05/03 02:44:41;;;;;;;;;12.40;11.80;;;;;8.79;61.57;100008.97;5094690;28;9469;-63
2022/05/03 02:47:09;;;;;;;;;9.40;9.20;;;;;8.76;61.63;100017.16;5095859;28;8945;-63
2022/05/03 02:49:37;;;;;;;;;6.00;4.80;;;;;8.73;61.88;100025.31;5096020;28;8962;-63
2022/05/03 02:52:04;;;;;;;;;8.20;7.40;;;;;8.71;61.70;100019.28;5095596;28;8831;-63
2022/05/03 02:54:32;;;;;;;;;9.40;8.40;;;;;8.68;61.92;100019.47;5095134;28;8840;-63
2022/05/03 02:57:00;;;;;;;;;11.40;10.60;;;;;8.63;62.10;100016.31;5095918;28;8828;-64
2022/05/03 03:01:47;;;;;;;;;14.80;13.40;;;;;8.59;62.25;100020.13;5095642;28;8904;-63
2022/05/03 03:02:15;;;;;;;;;11.20;8.20;;;;;8.56;62.09;100014.19;5095281;28;8828;-63
2022/05/03 03:04:43;;;;;;;;;9.60;9.60;;;;;8.55;61.89;100015.16;5095076;28;8844;-63
2022/05/03 03:07:10;;;;;;;;;10.00;10.00;;;;;8.54;61.93;100013.47;5095427;28;8847;-63
2022/05/03 03:09:38;;;;;;;;;12.60;12.00;;;;;8.54;62.35;100011.69;5095291;28;8893;-63
2022/05/03 03:12:06;;;;;;;;;10.00;9.80;;;;;8.54;61.92;100009.03;5094892;28;9517;-63
2022/05/03 03:14:34;;;;;;;;;10.00;9.00;;;;;8.55;61.58;100008.06;5094545;28;8808;-63
2022/05/03 03:17:01;;;;;;;;;12.00;12.00;;;;;8.55;62.20;100004.53;5095225;28;8843;-63
2022/05/03 03:19:29;;;;;;;;;11.60;11.60;;;;;8.48;62.09;100011.22;5095568;28;8828;-64
2022/05/03 03:21:57;;;;;;;;;9.40;9.40;;;;;8.39;62.19;100012.75;5095034;28;8861;-62
2022/05/03 03:24:25;;;;;;;;;12.80;12.80;;;;;8.29;62.90;100006.34;5094842;28;8827;-62
2022/05/03 03:26:52;;;;;;;;;11.60;11.60;;;;;8.18;62.75;100014.19;5095119;28;8858;-63
2022/05/03 03:29:20;;;;;;;;;13.00;12.40;;;;;8.07;62.90;100015.88;5095606;28;8827;-63
2022/05/03 03:31:48;;;;;;;;;13.40;12.20;;;;;7.96;63.00;100008.66;5095348;28;8832;-63
2022/05/03 03:34:16;;;;;;;;;10.80;9.00;;;;;7.91;63.44;100016.06;5095094;28;8824;-63
2022/05/03 03:36:43;;;;;;;;;8.60;8.60;;;;;7.87;63.38;100009.28;5095268;28;9546;-64
2022/05/03 03:39:11;;;;;;;;;11.60;10.40;;;;;7.86;63.55;100012.88;5097712;28;8827;-63
2022/05/03 03:41:39;;;;;;;;;7.00;7.00;;;;;7.83;63.16;100013.06;5099170;28;8831;-63
2022/05/03 03:44:06;;;;;;;;;15.00;12.00;;;;;7.83;63.80;100013.06;5098634;28;8831;-62
2022/05/03 03:46:34;;;;;;;;;9.80;9.60;;;;;7.83;63.71;100012.25;5098600;28;8824;-63
2022/05/03 03:49:02;;;;;;;;;7.80;7.80;;;;;7.82;63.45;100021.13;5098868;28;8827;-63
2022/05/03 03:51:30;;;;;;;;;9.60;7.00;;;;;7.78;63.33;100017.84;5098946;28;8862;-63
2022/05/03 03:53:58;;;;;;;;;8.20;7.40;;;;;7.72;63.74;100015.63;5098887;28;8816;-63
2022/05/03 03:56:25;;;;;;;;;12.40;12.00;;;;;7.68;63.18;100017.72;5098132;28;8824;-63
2022/05/03 03:58:53;;;;;;;;;7.00;7.00;;;;;7.65;63.58;100016.09;5098501;28;8819;-63
2022/05/03 04:01:21;;;;;;;;;12.00;10.40;;;;;7.62;63.27;100016.31;5098446;28;8828;-64
2022/05/03 04:03:49;;;;;;;;;5.60;5.60;;;;;7.61;63.32;100016.41;5098517;28;8835;-63
2022/05/03 04:06:16;;;;;;;;;7.00;6.60;;;;;7.62;63.43;100028.72;5098850;28;8862;-63
2022/05/03 04:08:44;;;;;;;;;7.20;6.60;;;;;7.62;63.20;100026.91;5097924;28;8970;-63
2022/05/03 04:11:12;;;;;;;;;11.60;9.20;;;;;7.61;63.89;100027.88;5098048;28;8866;-64
2022/05/03 04:13:40;;;;;;;;;10.40;10.40;;;;;7.59;63.38;100035.06;5097707;28;8845;-63
2022/05/03 04:16:07;;;;;;;;;11.40;10.40;;;;;7.56;63.71;100029.97;5097882;28;8851;-64
2022/05/03 04:18:45;;;;;;;;;7.00;6.80;;;;;7.55;63.82;100027.41;5097194;28;8847;-64
2022/05/03 04:21:12;;;;;;;;;9.00;7.80;;;;;7.53;63.42;100040.78;5097080;28;8940;-63
2022/05/03 04:23:40;;;;;;;;;10.00;9.20;;;;;7.53;63.79;100039.91;5096569;28;8824;-66
2022/05/03 04:26:09;;;;;;;;;13.00;10.80;;;;;7.53;63.62;100045.22;5096810;28;8831;-63
2022/05/03 04:28:37;;;;;;;;;15.60;13.60;;;;;7.53;63.53;100045.22;5096633;28;8804;-63
2022/05/03 04:31:04;;;;;;;;;4.80;4.80;;;;;7.54;63.62;100049.56;5097333;28;9477;-63
2022/05/03 04:33:32;;;;;;;;;10.80;9.00;;;;;7.55;63.39;100051.25;5097770;28;8847;-64
2022/05/03 04:36:00;;;;;;;;;15.20;15.20;;;;;7.57;63.26;100052.03;5097607;28;8819;-63
2022/05/03 04:38:28;;;;;;;;;15.00;12.40;;;;;7.61;63.75;100057.03;5097187;28;8816;-63
2022/05/03 04:40:55;;;;;;;;;10.80;10.00;;;;;7.66;63.53;100056.72;5097581;28;8811;-63
2022/05/03 04:43:23;;;;;;;;;10.60;9.40;;;;;7.70;63.07;100053.75;5098000;28;8892;-63
2022/05/03 04:45:51;;;;;;;;;4.00;4.00;;;;;7.72;62.92;100047.41;5097702;28;8831;-63
2022/05/03 04:48:19;;;;;;;;;6.80;6.80;;;;;7.76;62.56;100043.59;5096957;28;8832;-64
2022/05/03 04:50:47;;;;;;;;;13.00;12.00;;;;;7.78;63.02;100046.16;5095767;28;9535;-63
2022/05/03 04:53:16;;;;;;;;;11.80;9.40;;;;;7.82;62.53;100043.19;5095106;28;8847;-63
2022/05/03 04:55:44;;;;;;;;;9.40;9.40;;;;;7.88;62.62;100048.09;5095427;28;8859;-64
2022/05/03 04:58:12;;;;;;;;;15.40;14.20;;;;;7.89;62.47;100049.78;5096136;28;8831;-64
2022/05/03 05:00:39;;;;;;;;;11.20;10.00;;;;;7.91;62.63;100047.03;5096536;28;8840;-63
2022/05/03 05:03:07;;;;;;;;;12.60;12.00;;;;;7.96;62.50;100053.72;5096082;28;8831;-63
2022/05/03 05:05:35;;;;;;;;;13.00;11.60;;;;;8.01;62.59;100062.22;5096013;28;8867;-63
2022/05/03 05:08:03;;;;;;;;;14.20;12.60;;;;;8.08;62.60;100060.00;5094689;28;8847;-63
2022/05/03 05:10:32;;;;;;;;;11.60;10.00;;;;;8.16;62.66;100050.59;5094852;28;8925;-63
2022/05/03 05:12:59;;;;;;;;;11.20;11.20;;;;;8.28;62.33;100060.38;5094928;28;8854;-63
2022/05/03 05:15:27;;;;;;;;;12.80;12.40;;;;;8.40;61.98;100054.22;5095935;28;8850;-63
2022/05/03 05:17:55;;;;;;;;;5.60;5.60;;;;;8.53;61.52;100057.72;5096487;28;8855;-63
2022/05/03 05:20:23;;;;;;;;;10.00;9.40;;;;;8.67;61.23;100067.41;5075791;28;8857;-64
2022/05/03 05:22:50;;;;;;;;;9.00;8.60;;;;;8.80;61.10;100057.63;5076157;28;8832;-63
2022/05/03 05:25:38;;;;;;;;;12.40;11.20;;;;;9.00;60.69;100062.34;5076962;28;8880;-64
2022/05/03 05:28:06;;;;;;;;;4.00;4.00;;;;;9.14;60.53;100056.91;5096097;28;8851;-63
2022/05/03 05:30:34;;;;;;;;;10.00;10.00;;;;;9.28;60.15;100064.72;5095050;28;9767;-65
2022/05/03 05:33:01;;;;;;;;;10.80;9.60;;;;;9.42;60.25;100062.75;5094905;28;9478;-63
2022/05/03 05:35:29;;;;;;;;;10.40;9.60;;;;;9.53;59.61;100059.31;5095123;28;8815;-63
2022/05/03 05:37:57;;;;;;;;;11.20;11.20;;;;;9.65;59.61;100061.91;5094964;28;8959;-63
2022/05/03 05:40:25;;;;;;;;;6.20;6.00;;;;;9.80;59.17;100062.59;5094747;28;8968;-67
2022/05/03 05:42:52;;;;;;;;;10.00;10.00;;;;;9.98;59.02;100053.22;5094267;28;8835;-65
2022/05/03 05:45:20;;;;;;;;;9.40;8.40;;;;;10.16;58.84;100051.91;5094691;28;8835;-63
2022/05/03 05:47:48;;;;;;;;;8.00;6.75;;;;;10.34;58.08;100061.13;5094890;28;8831;-63
2022/05/03 05:50:15;;;;;;;;;9.00;9.00;;;;;10.52;58.23;100049.91;5094201;28;8867;-68
2022/05/03 05:55:29;;;;;;;;;12.50;11.50;;;;;10.83;57.63;100059.84;5093605;28;9873;-63
2022/05/03 05:57:58;;;;;;;;;10.25;9.25;;;;;10.97;57.63;100050.75;5093788;28;8839;-63
2022/05/03 06:00:25;;;;;;;;;6.25;6.25;;;;;11.09;57.44;100057.78;5092336;28;8866;-63
2022/05/03 06:02:53;;;;;;;;;9.25;7.00;;;;;11.19;57.50;100067.59;5093101;28;9531;-63
2022/05/03 06:05:21;;;;;;;;;6.50;5.50;;;;;11.28;57.03;100071.31;5093254;28;8856;-67
2022/05/03 06:07:48;;;;;;;;;11.00;10.50;;;;;11.31;57.08;100071.91;5092561;28;8832;-63
2022/05/03 06:10:16;;;;;;;;;8.50;6.50;;;;;11.37;57.23;100071.44;5090741;28;8816;-63
2022/05/03 06:12:44;;;;;;;;;3.75;3.00;;;;;11.48;56.93;100076.75;5092331;28;8816;-63
2022/05/03 06:15:12;;;;;;;;;6.50;6.50;;;;;11.55;57.18;100075.28;5093077;28;8838;-63
2022/05/03 06:17:41;;;;;;;;;11.00;9.00;;;;;11.61;56.61;100080.13;5092734;28;8862;-63
2022/05/03 06:20:09;;;;;;;;;8.00;7.50;;;;;11.70;56.19;100075.88;5092442;28;8933;-64
2022/05/03 06:22:36;;;;;;;;;8.50;7.00;;;;;11.77;56.47;100075.25;5092382;28;8839;-64
2022/05/03 06:25:04;;;;;;;;;8.00;8.00;;;;;11.84;56.81;100071.09;5092885;28;8840;-63
2022/05/03 06:27:32;;;;;;;;;7.00;6.25;;;;;11.92;56.34;100070.47;5092116;28;8854;-63
2022/05/03 06:30:00;;;;;;;;;9.00;9.00;;;;;11.98;56.20;100078.81;5092035;28;8835;-63
2022/05/03 06:32:27;;;;;;;;;8.00;6.50;;;;;12.03;56.54;100073.94;5093659;28;8876;-63
2022/05/03 06:34:56;;;;;;;;;8.00;7.00;;;;;12.14;56.11;100072.06;5093555;28;8839;-63
2022/05/03 06:37:23;;;;;;;;;6.00;6.00;;;;;12.22;56.17;100072.25;5092944;28;8851;-64
2022/05/03 06:39:51;;;;;;;;;6.75;6.00;;;;;12.32;56.15;100069.66;5093065;28;8839;-63
2022/05/03 06:42:20;;;;;;;;;9.50;9.50;;;;;12.43;55.61;100067.78;5093443;28;9516;-63
2022/05/03 06:44:48;;;;;;;;;6.00;4.50;;;;;12.56;55.36;100070.25;5093827;28;8839;-64
2022/05/03 06:47:16;;;;;;;;;7.25;6.50;;;;;12.67;55.28;100067.50;5093325;28;8960;-63
2022/05/03 06:49:44;;;;;;;;;9.25;9.00;;;;;12.75;54.79;100065.84;5092903;28;8848;-63
2022/05/03 06:52:12;;;;;;;;;4.00;3.25;;;;;12.82;55.08;100061.69;5093653;28;8843;-64
2022/05/03 06:54:39;;;;;;;;;7.00;7.00;;;;;12.89;55.14;100068.19;5092531;28;8835;-64
2022/05/03 06:57:08;;;;;;;;;1.25;0.50;;;;;13.01;55.09;100071.66;5094115;28;8858;-64
2022/05/03 06:59:36;;;;;;;;;8.25;8.00;;;;;13.11;54.76;100080.53;5093807;28;8844;-63
2022/05/03 07:02:04;;;;;;;;;7.00;6.00;;;;;13.17;54.65;100077.34;5093044;28;8824;-63
2022/05/03 07:04:31;;;;;;;;;12.25;10.00;;;;;13.20;54.28;100082.44;5092425;28;8832;-64
2022/05/03 07:06:59;;;;;;;;;6.50;6.00;;;;;13.30;54.63;100077.94;5092966;28;8843;-63
2022/05/03 07:09:27;;;;;;;;;6.00;6.00;;;;;13.39;54.16;100088.69;5091718;28;8830;-63
2022/05/03 07:11:55;;;;;;;;;7.00;7.00;;;;;13.49;54.02;100096.72;5092957;28;9616;-63
2022/05/03 07:14:22;;;;;;;;;8.50;8.00;;;;;13.59;54.37;100094.94;5095069;28;8840;-63
2022/05/03 07:16:50;;;;;;;;;2.50;2.50;;;;;13.66;53.58;100091.56;5094486;28;8831;-64
2022/05/03 07:24:49;;;;;;;;;7.00;6.50;;;;;13.85;53.61;100096.97;5095714;28;8839;-64
2022/05/03 07:27:17;;;;;;;;;7.00;6.50;;;;;13.87;53.34;100092.31;5095238;28;8831;-64
2022/05/03 07:29:45;;;;;;;;;6.00;5.50;;;;;13.89;53.71;100094.84;5095412;28;8838;-67
2022/05/03 07:32:14;;;;;;;;;6.25;6.00;;;;;13.93;53.24;100093.56;5095756;28;8824;-63
2022/05/03 07:34:41;;;;;;;;;6.00;6.00;;;;;14.04;53.23;100093.47;5095548;28;8816;-63
2022/05/03 07:37:09;;;;;;;;;7.00;6.00;;;;;14.21;52.83;100098.13;5096024;28;8861;-64
2022/05/03 07:39:37;;;;;;;;;8.00;7.00;;;;;14.35;52.45;100089.69;5095791;28;8870;-64
2022/05/03 07:42:05;;;;;;;;;6.25;6.00;;;;;14.47;52.58;100094.75;5095235;28;8846;-63
2022/05/03 07:44:32;;;;;;;;;4.00;4.00;;;;;14.60;52.33;100091.75;5095925;28;8898;-63
2022/05/03 07:47:00;;;;;;;;;4.00;4.00;;;;;14.71;52.00;100088.94;5095522;28;8865;-64
2022/05/03 07:49:28;;;;;;;;;6.50;6.50;;;;;14.83;51.70;100095.78;5095124;28;8858;-64
2022/05/03 07:51:55;;;;;;;;;8.00;7.00;;;;;14.94;51.88;100092.97;5096203;28;8891;-63
2022/05/03 07:54:23;;;;;;;;;3.00;3.00;;;;;15.03;51.53;100098.25;5094625;28;8836;-63
2022/05/03 07:56:53;;;;;;;;;7.00;6.00;;;;;15.16;51.21;100092.59;5095885;28;8854;-64
2022/05/03 07:59:25;;;;;;;;;5.50;4.00;;;;;15.23;50.93;100094.53;5094942;28;8840;-63
2022/05/03 08:01:52;;;;;;;;;6.50;6.00;;;;;15.33;51.22;100094.53;5094134;28;8827;-63
2022/05/03 08:04:20;;;;;;;;;6.25;6.00;;;;;15.40;50.83;100090.25;5095396;28;8844;-63
2022/05/03 08:06:48;;;;;;;;;8.00;7.25;;;;;15.50;51.10;100099.09;5095306;28;8866;-64
2022/05/03 08:09:16;;;;;;;;;7.00;6.50;;;;;15.55;50.75;100099.50;5094273;28;8835;-63
2022/05/03 08:11:43;;;;;;;;;6.00;6.00;;;;;15.62;50.08;100097.91;5094290;28;8838;-63
2022/05/03 08:14:11;;;;;;;;;6.25;6.25;;;;;15.66;50.36;100102.84;5093765;28;8845;-63
2022/05/03 08:16:39;;;;;;;;;5.75;5.75;;;;;15.73;50.52;100111.13;5094442;28;8850;-63
2022/05/03 08:19:07;;;;;;;;;6.50;4.00;;;;;15.79;49.92;100108.66;5094412;28;8854;-64
2022/05/03 08:21:35;;;;;;;;;6.00;6.00;;;;;15.83;50.20;100112.75;5094266;28;8862;-64
2022/05/03 08:24:03;;;;;;;;;12.00;9.50;;;;;15.89;50.29;100105.94;5093509;28;9496;-63
2022/05/03 08:26:33;;;;;;;;;6.00;4.50;;;;;15.98;50.22;100113.06;5094404;28;8824;-63
2022/05/03 08:29:01;;;;;;;;;6.25;6.00;;;;;16.04;50.02;100115.16;5095843;28;8928;-63
2022/05/03 08:31:28;;;;;;;;;9.75;7.50;;;;;16.06;49.61;100116.69;5095526;28;8844;-63
2022/05/03 08:33:57;;;;;;;;;6.00;6.00;;;;;16.07;49.89;100112.19;5094805;28;8866;-63
2022/05/03 08:36:24;;;;;;;;;6.50;6.50;;;;;16.12;49.70;100110.72;5095301;28;8857;-63
2022/05/03 08:44:22;;;;;;;;;2.00;0.50;;;;;16.25;49.33;100112.00;5074222;28;8960;-63
2022/05/03 08:46:49;;;;;;;;;6.50;6.00;;;;;16.29;49.29;100118.78;5072387;28;8834;-63
2022/05/03 08:49:17;;;;;;;;;2.00;2.00;;;;;16.35;48.57;100123.53;5076509;28;8916;-64
2022/05/03 08:51:45;;;;;;;;;4.50;4.25;;;;;16.45;48.72;100118.97;5094445;28;9490;-64
2022/05/03 08:54:12;;;;;;;;;6.00;4.00;;;;;16.56;48.62;100118.69;5094100;28;8831;-63
2022/05/03 08:56:42;;;;;;;;;8.50;6.75;;;;;16.71;48.60;100117.16;5093740;28;9498;-63
2022/05/03 08:59:10;;;;;;;;;5.00;5.00;;;;;16.81;48.09;100120.59;5093946;28;8823;-68
2022/05/03 09:01:37;;;;;;;;;9.25;5.00;;;;;16.91;47.69;100120.47;5094307;28;8828;-63
2022/05/03 09:04:06;;;;;;;;;5.50;5.50;;;;;17.01;48.11;100113.16;5095162;28;8816;-63
2022/05/03 09:06:34;;;;;;;;;6.00;6.00;;;;;17.11;47.81;100112.06;5095177;28;8862;-62
2022/05/03 09:09:01;;;;;;;;;9.00;7.50;;;;;17.23;47.33;100116.16;5095154;28;8851;-62
2022/05/03 09:11:29;;;;;;;;;6.75;6.00;;;;;17.34;46.79;100123.09;5094979;28;8962;-62
2022/05/03 09:13:57;;;;;;;;;6.00;6.00;;;;;17.45;46.93;100118.31;5095386;28;8838;-62
2022/05/03 09:16:25;;;;;;;;;5.75;5.75;;;;;17.57;46.67;100116.19;5094773;28;8823;-62
2022/05/03 09:18:58;;;;;;;;;7.00;5.00;;;;;17.64;46.58;100112.69;5094269;28;8819;-65
2022/05/03 09:24:10;;;;;;;;;6.50;4.50;;;;;17.74;46.46;100116.09;5094598;28;8843;-65
2022/05/03 09:26:39;;;;;;;;;3.50;3.00;;;;;17.85;45.74;100118.47;5093855;28;8852;-63
2022/05/03 09:29:07;;;;;;;;;4.00;4.00;;;;;17.96;46.24;100120.88;5093426;28;8970;-65
2022/05/03 09:31:35;;;;;;;;;3.00;3.00;;;;;18.09;45.73;100121.25;5093929;28;8843;-65
2022/05/03 09:34:03;;;;;;;;;4.60;3.20;;;;;18.25;45.26;100118.56;5093683;28;8828;-64
2022/05/03 09:36:31;;;;;;;;;5.20;4.00;;;;;18.40;44.78;100105.31;5093097;28;9520;-64
2022/05/03 09:39:19;;;;;;;;;4.00;4.00;;;;;18.55;44.50;100109.88;5091462;28;8856;-65
2022/05/03 09:41:46;;;;;;;;;4.00;3.00;;;;;18.67;43.97;100104.97;5094049;28;8832;-64
2022/05/03 09:44:14;;;;;;;;;3.20;3.00;;;;;18.91;44.11;100100.38;5094423;28;8961;-64
2022/05/03 09:46:42;;;;;;;;;2.20;1.00;;;;;19.40;43.32;100104.69;5094376;28;8973;-64
2022/05/03 09:49:10;;;;;;;;;3.00;3.00;;;;;19.92;42.30;100100.41;5094676;28;8828;-64
2022/05/03 09:51:38;;;;;;;;;2.60;1.00;;;;;20.53;41.39;100099.50;5094430;28;8894;-64
2022/05/03 09:54:06;;;;;;;;;1.00;1.00;;;;;21.20;40.41;100096.69;5092627;28;8840;-64
2022/05/03 09:56:34;;;;;;;;;2.00;2.00;;;;;21.75;40.02;100095.22;5093531;28;8916;-64
2022/05/03 09:59:02;;;;;;;;;2.80;2.80;;;;;22.15;39.48;100099.25;5093770;28;9532;-64
2022/05/03 10:01:30;;;;;;;;;1.80;1.80;;;;;22.55;38.63;100088.59;5092661;28;8954;-64
2022/05/03 10:03:57;;;;;;;;;4.00;2.00;;;;;22.92;38.96;100084.75;5093466;28;8851;-64
2022/05/03 10:06:25;;;;;;;;;2.00;2.00;;;;;23.19;37.79;100090.22;5093416;28;9970;-64
2022/05/03 10:08:56;;;;;;;;;4.00;4.00;;;;;23.47;38.00;100084.75;5093187;28;8852;-64
2022/05/03 10:11:25;;;;;;;;;0.00;0.00;;;;;23.72;37.62;100092.19;5091947;28;8889;-65
2022/05/03 10:13:52;;;;;;;;;2.00;2.00;;;;;23.98;37.42;100094.22;5091677;28;8863;-67
2022/05/03 10:21:56;;;;;;;;;3.80;3.00;;;;;24.63;35.64;100088.94;5033560;28;8966;-64
2022/05/03 10:24:23;;;;;;;;;4.20;3.40;;;;;24.87;35.98;100088.34;5073520;28;8834;-64
2022/05/03 10:26:52;;;;;;;;;5.60;2.60;;;;;25.15;35.14;100083.47;5077893;28;8844;-65
2022/05/03 10:29:19;;;;;;;;;3.00;3.00;;;;;25.33;34.98;100076.34;5094171;28;9583;-64
2022/05/03 10:31:47;;;;;;;;;3.00;2.60;;;;;25.54;34.42;100081.53;5093432;28;8844;-64
2022/05/03 10:34:16;;;;;;;;;2.60;2.60;;;;;25.72;35.06;100078.94;5092352;28;8823;-66
2022/05/03 10:36:44;;;;;;;;;1.20;1.20;;;;;25.86;34.60;100077.84;5091302;28;8827;-65
2022/05/03 10:39:12;;;;;;;;;1.00;1.00;;;;;26.12;34.50;100081.31;5092470;28;8834;-65
2022/05/03 10:41:40;;;;;;;;;5.00;5.00;;;;;26.45;33.94;100073.78;5091573;28;8838;-66
2022/05/03 10:44:07;;;;;;;;;4.60;4.60;;;;;26.68;33.59;100073.19;5093573;28;8835;-65
2022/05/03 10:46:35;;;;;;;;;6.00;6.00;;;;;26.69;33.63;100064.78;5092072;28;8970;-65
2022/05/03 10:49:03;;;;;;;;;3.00;2.80;;;;;26.76;33.34;100060.13;5091603;28;8836;-65
2022/05/03 10:51:31;;;;;;;;;5.60;5.00;;;;;27.00;32.80;100067.47;5092018;28;8969;-65
2022/05/03 10:53:59;;;;;;;;;2.00;2.00;;;;;27.28;32.96;100059.66;5091749;28;8856;-65
2022/05/03 10:56:26;;;;;;;;;4.40;4.40;;;;;27.67;32.99;100066.56;5092201;28;8962;-65
2022/05/03 10:58:54;;;;;;;;;6.60;6.60;;;;;27.98;31.45;100056.31;5090808;28;9627;-70
2022/05/03 11:01:23;;;;;;;;;6.00;6.00;;;;;28.33;32.05;100054.53;5092477;28;8831;-65
2022/05/03 11:03:52;;;;;;;;;3.00;2.80;;;;;28.67;31.51;100055.75;5092551;28;8839;-64
2022/05/03 11:06:21;;;;;;;;;5.20;4.00;;;;;28.93;31.07;100047.94;5091812;28;8855;-65
2022/05/03 11:08:50;;;;;;;;;4.60;4.60;;;;;29.10;30.66;100051.63;5092204;28;8848;-66
2022/05/03 11:11:18;;;;;;;;;4.00;4.00;;;;;29.23;31.26;100059.63;5092300;28;8863;-65
2022/05/03 11:13:46;;;;;;;;;6.60;6.60;;;;;29.41;30.20;100054.00;5092158;28;8843;-66
2022/05/03 11:16:14;;;;;;;;;7.20;7.20;;;;;29.57;31.00;100046.97;5091316;28;8814;-64
2022/05/03 11:18:42;;;;;;;;;9.00;8.00;;;;;29.83;30.32;100043.66;5092493;28;8874;-65
2022/05/03 11:21:09;;;;;;;;;7.40;6.80;;;;;29.81;30.32;100038.41;5091098;28;8852;-65
2022/05/03 11:23:37;;;;;;;;;4.00;4.00;;;;;29.85;30.64;100039.59;5091623;28;8832;-64
2022/05/03 11:26:05;;;;;;;;;9.00;8.20;;;;;29.94;30.30;100043.63;5090642;28;8836;-65
2022/05/03 11:28:32;;;;;;;;;8.60;8.40;;;;;29.95;30.11;100036.22;5090209;28;8843;-64
2022/05/03 11:31:00;;;;;;;;;5.00;5.00;;;;;30.03;30.14;100036.66;5090593;28;8985;-64
2022/05/03 11:33:29;;;;;;;;;8.80;8.00;;;;;30.02;30.06;100039.66;5091276;28;8836;-64
2022/05/03 11:35:56;;;;;;;;;8.00;6.80;;;;;30.06;30.05;100040.84;5089017;28;8828;-65
2022/05/03 11:38:24;;;;;;;;;8.20;7.00;;;;;30.22;29.94;100023.56;5089639;28;8824;-64
2022/05/03 11:41:12;;;;;;;;;8.00;8.00;;;;;30.39;30.18;100028.03;5089013;28;8843;-64
2022/05/03 11:43:39;;;;;;;;;7.20;6.40;;;;;30.59;29.90;100017.41;5087754;28;8856;-65
2022/05/03 11:46:07;;;;;;;;;7.00;6.40;;;;;30.72;29.69;100019.00;5089829;28;8836;-65
2022/05/03 11:48:35;;;;;;;;;9.20;9.00;;;;;30.87;29.86;100007.16;5091074;28;8843;-65
2022/05/03 11:56:34;;;;;;;;;8.80;8.40;;;;;31.05;28.84;100019.81;5092212;28;8950;-64
2022/05/03 11:59:02;;;;;;;;;8.20;8.20;;;;;31.15;29.20;100011.72;5092099;28;8823;-66
2022/05/03 12:01:30;;;;;;;;;8.00;7.60;;;;;31.20;28.73;100009.06;5095354;28;8832;-65
2022/05/03 12:03:59;;;;;;;;;11.00;9.20;;;;;31.07;28.86;100007.47;5095525;28;8839;-65